sensor_id;sensor_type;location;lat;lon;timestamp;P1;durP1;ratioP1;P2;durP2;ratioP2
21543;SDS011;10933;50.754;11.508;2023-04-25T00:00:14;5.70;;;5.40;;
21543;SDS011;10933;50.754;11.508;2023-04-25T00:02:41;5.90;;;5.60;;
21543;SDS011;10933;50.754;11.508;2023-04-25T00:05:07;5.80;;;5.30;;
21543;SDS011;10933;50.754;11.508;2023-04-25T00:07:34;5.97;;;5.60;;
21543;SDS011;10933;50.754;11.508;2023-04-25T00:10:00;6.50;;;6.10;;
21543;SDS011;10933;50.754;11.508;2023-04-25T00:12:27;6.20;;;5.70;;
21543;SDS011;10933;50.754;11.508;2023-04-25T00:14:54;5.70;;;5.33;;
21543;SDS011;10933;50.754;11.508;2023-04-25T00:17:22;5.97;;;5.67;;
21543;SDS011;10933;50.754;11.508;2023-04-25T00:19:49;6.57;;;6.00;;
21543;SDS011;10933;50.754;11.508;2023-04-25T00:22:16;6.50;;;5.83;;
21543;SDS011;10933;50.754;11.508;2023-04-25T00:24:42;6.97;;;6.40;;
21543;SDS011;10933;50.754;11.508;2023-04-25T00:27:08;7.63;;;6.97;;
21543;SDS011;10933;50.754;11.508;2023-04-25T00:29:34;6.50;;;6.10;;
21543;SDS011;10933;50.754;11.508;2023-04-25T00:32:01;6.27;;;5.97;;
21543;SDS011;10933;50.754;11.508;2023-04-25T00:34:27;6.67;;;6.17;;
21543;SDS011;10933;50.754;11.508;2023-04-25T00:36:53;6.50;;;6.10;;
21543;SDS011;10933;50.754;11.508;2023-04-25T00:39:19;6.37;;;6.07;;
21543;SDS011;10933;50.754;11.508;2023-04-25T00:41:46;6.23;;;5.93;;
21543;SDS011;10933;50.754;11.508;2023-04-25T00:44:12;6.83;;;6.07;;
21543;SDS011;10933;50.754;11.508;2023-04-25T00:46:41;6.27;;;5.87;;
21543;SDS011;10933;50.754;11.508;2023-04-25T00:49:08;6.37;;;5.97;;
21543;SDS011;10933;50.754;11.508;2023-04-25T00:51:40;7.20;;;6.60;;
21543;SDS011;10933;50.754;11.508;2023-04-25T00:54:06;5.60;;;5.30;;
21543;SDS011;10933;50.754;11.508;2023-04-25T00:56:33;6.37;;;6.00;;
21543;SDS011;10933;50.754;11.508;2023-04-25T00:58:59;5.73;;;5.33;;
21543;SDS011;10933;50.754;11.508;2023-04-25T01:01:25;7.13;;;5.67;;
21543;SDS011;10933;50.754;11.508;2023-04-25T01:03:51;5.67;;;5.37;;
21543;SDS011;10933;50.754;11.508;2023-04-25T01:06:19;5.33;;;4.90;;
21543;SDS011;10933;50.754;11.508;2023-04-25T01:08:47;5.77;;;4.80;;
21543;SDS011;10933;50.754;11.508;2023-04-25T01:11:13;5.00;;;4.70;;
21543;SDS011;10933;50.754;11.508;2023-04-25T01:13:39;5.10;;;4.80;;
21543;SDS011;10933;50.754;11.508;2023-04-25T01:16:05;5.63;;;5.23;;
21543;SDS011;10933;50.754;11.508;2023-04-25T01:18:32;5.13;;;4.53;;
21543;SDS011;10933;50.754;11.508;2023-04-25T01:21:08;5.33;;;5.03;;
21543;SDS011;10933;50.754;11.508;2023-04-25T01:23:36;5.53;;;5.13;;
21543;SDS011;10933;50.754;11.508;2023-04-25T01:26:04;5.93;;;5.53;;
21543;SDS011;10933;50.754;11.508;2023-04-25T01:28:33;5.63;;;5.33;;
21543;SDS011;10933;50.754;11.508;2023-04-25T01:31:00;6.30;;;5.80;;
21543;SDS011;10933;50.754;11.508;2023-04-25T01:33:26;6.30;;;5.80;;
21543;SDS011;10933;50.754;11.508;2023-04-25T01:35:52;5.77;;;5.43;;
21543;SDS011;10933;50.754;11.508;2023-04-25T01:38:19;5.47;;;5.17;;
21543;SDS011;10933;50.754;11.508;2023-04-25T01:40:45;5.80;;;5.50;;
21543;SDS011;10933;50.754;11.508;2023-04-25T01:43:14;6.40;;;5.17;;
21543;SDS011;10933;50.754;11.508;2023-04-25T01:45:41;5.63;;;5.23;;
21543;SDS011;10933;50.754;11.508;2023-04-25T01:48:08;5.97;;;5.53;;
21543;SDS011;10933;50.754;11.508;2023-04-25T01:50:37;5.90;;;5.47;;
21543;SDS011;10933;50.754;11.508;2023-04-25T01:53:04;6.40;;;5.90;;
21543;SDS011;10933;50.754;11.508;2023-04-25T01:55:30;6.47;;;6.07;;
21543;SDS011;10933;50.754;11.508;2023-04-25T01:57:57;6.43;;;5.93;;
21543;SDS011;10933;50.754;11.508;2023-04-25T02:00:24;5.87;;;5.47;;
21543;SDS011;10933;50.754;11.508;2023-04-25T02:02:50;6.83;;;6.03;;
21543;SDS011;10933;50.754;11.508;2023-04-25T02:05:18;6.17;;;5.87;;
21543;SDS011;10933;50.754;11.508;2023-04-25T02:07:45;5.60;;;5.30;;
21543;SDS011;10933;50.754;11.508;2023-04-25T02:10:12;6.03;;;5.70;;
21543;SDS011;10933;50.754;11.508;2023-04-25T02:12:38;6.60;;;6.17;;
21543;SDS011;10933;50.754;11.508;2023-04-25T02:15:04;6.33;;;5.93;;
21543;SDS011;10933;50.754;11.508;2023-04-25T02:17:31;6.60;;;6.10;;
21543;SDS011;10933;50.754;11.508;2023-04-25T02:19:57;6.33;;;5.93;;
21543;SDS011;10933;50.754;11.508;2023-04-25T02:22:23;6.17;;;5.77;;
21543;SDS011;10933;50.754;11.508;2023-04-25T02:24:49;6.17;;;5.60;;
21543;SDS011;10933;50.754;11.508;2023-04-25T02:27:15;6.20;;;5.80;;
21543;SDS011;10933;50.754;11.508;2023-04-25T02:29:41;5.80;;;5.50;;
21543;SDS011;10933;50.754;11.508;2023-04-25T02:32:07;6.67;;;6.27;;
21543;SDS011;10933;50.754;11.508;2023-04-25T02:34:33;6.40;;;5.90;;
21543;SDS011;10933;50.754;11.508;2023-04-25T02:37:00;6.47;;;5.97;;
21543;SDS011;10933;50.754;11.508;2023-04-25T02:39:26;7.10;;;6.20;;
21543;SDS011;10933;50.754;11.508;2023-04-25T02:41:52;6.20;;;5.90;;
21543;SDS011;10933;50.754;11.508;2023-04-25T02:44:18;6.90;;;6.30;;
21543;SDS011;10933;50.754;11.508;2023-04-25T02:46:45;6.50;;;6.03;;
21543;SDS011;10933;50.754;11.508;2023-04-25T02:49:11;5.97;;;5.67;;
21543;SDS011;10933;50.754;11.508;2023-04-25T02:51:37;6.33;;;5.93;;
21543;SDS011;10933;50.754;11.508;2023-04-25T02:54:03;6.03;;;5.63;;
21543;SDS011;10933;50.754;11.508;2023-04-25T02:56:29;5.77;;;5.47;;
21543;SDS011;10933;50.754;11.508;2023-04-25T02:58:55;6.80;;;5.80;;
21543;SDS011;10933;50.754;11.508;2023-04-25T03:01:21;5.93;;;5.47;;
21543;SDS011;10933;50.754;11.508;2023-04-25T03:03:47;6.20;;;5.80;;
21543;SDS011;10933;50.754;11.508;2023-04-25T03:06:14;6.57;;;6.07;;
21543;SDS011;10933;50.754;11.508;2023-04-25T03:08:40;6.27;;;5.80;;
21543;SDS011;10933;50.754;11.508;2023-04-25T03:11:06;7.03;;;6.43;;
21543;SDS011;10933;50.754;11.508;2023-04-25T03:13:33;9.37;;;5.70;;
21543;SDS011;10933;50.754;11.508;2023-04-25T03:15:59;6.23;;;5.90;;
21543;SDS011;10933;50.754;11.508;2023-04-25T03:18:25;5.83;;;5.47;;
21543;SDS011;10933;50.754;11.508;2023-04-25T03:20:51;6.30;;;5.90;;
21543;SDS011;10933;50.754;11.508;2023-04-25T03:23:17;6.37;;;5.97;;
21543;SDS011;10933;50.754;11.508;2023-04-25T03:25:43;6.40;;;6.00;;
21543;SDS011;10933;50.754;11.508;2023-04-25T03:28:09;7.53;;;6.70;;
21543;SDS011;10933;50.754;11.508;2023-04-25T03:30:35;6.53;;;5.97;;
21543;SDS011;10933;50.754;11.508;2023-04-25T03:33:01;7.73;;;7.23;;
21543;SDS011;10933;50.754;11.508;2023-04-25T03:35:27;7.60;;;7.10;;
21543;SDS011;10933;50.754;11.508;2023-04-25T03:37:53;7.90;;;7.40;;
21543;SDS011;10933;50.754;11.508;2023-04-25T03:40:20;7.93;;;7.43;;
21543;SDS011;10933;50.754;11.508;2023-04-25T03:42:46;7.77;;;7.27;;
21543;SDS011;10933;50.754;11.508;2023-04-25T03:45:12;7.97;;;7.57;;
21543;SDS011;10933;50.754;11.508;2023-04-25T03:47:38;11.50;;;7.40;;
21543;SDS011;10933;50.754;11.508;2023-04-25T03:50:04;8.97;;;8.30;;
21543;SDS011;10933;50.754;11.508;2023-04-25T03:52:31;10.93;;;9.83;;
21543;SDS011;10933;50.754;11.508;2023-04-25T03:54:57;10.57;;;7.33;;
21543;SDS011;10933;50.754;11.508;2023-04-25T03:57:23;7.50;;;7.00;;
21543;SDS011;10933;50.754;11.508;2023-04-25T03:59:49;7.57;;;6.97;;
21543;SDS011;10933;50.754;11.508;2023-04-25T04:02:15;5.87;;;5.43;;
21543;SDS011;10933;50.754;11.508;2023-04-25T04:04:42;6.50;;;6.10;;
21543;SDS011;10933;50.754;11.508;2023-04-25T04:07:09;7.30;;;6.70;;
21543;SDS011;10933;50.754;11.508;2023-04-25T04:09:35;7.20;;;5.87;;
21543;SDS011;10933;50.754;11.508;2023-04-25T04:12:01;6.57;;;6.17;;
21543;SDS011;10933;50.754;11.508;2023-04-25T04:14:28;7.33;;;6.70;;
21543;SDS011;10933;50.754;11.508;2023-04-25T04:16:54;5.97;;;5.67;;
21543;SDS011;10933;50.754;11.508;2023-04-25T04:19:20;6.60;;;6.20;;
21543;SDS011;10933;50.754;11.508;2023-04-25T04:21:46;7.13;;;6.17;;
21543;SDS011;10933;50.754;11.508;2023-04-25T04:24:12;6.43;;;5.93;;
21543;SDS011;10933;50.754;11.508;2023-04-25T04:26:38;6.63;;;6.23;;
21543;SDS011;10933;50.754;11.508;2023-04-25T04:29:04;10.03;;;6.13;;
21543;SDS011;10933;50.754;11.508;2023-04-25T04:31:30;6.80;;;5.87;;
21543;SDS011;10933;50.754;11.508;2023-04-25T04:33:57;6.67;;;6.20;;
21543;SDS011;10933;50.754;11.508;2023-04-25T04:36:23;6.97;;;6.47;;
21543;SDS011;10933;50.754;11.508;2023-04-25T04:38:51;7.20;;;6.70;;
21543;SDS011;10933;50.754;11.508;2023-04-25T04:41:17;7.30;;;6.80;;
21543;SDS011;10933;50.754;11.508;2023-04-25T04:43:44;7.63;;;7.03;;
21543;SDS011;10933;50.754;11.508;2023-04-25T04:46:10;8.30;;;7.60;;
21543;SDS011;10933;50.754;11.508;2023-04-25T04:48:37;9.07;;;7.23;;
21543;SDS011;10933;50.754;11.508;2023-04-25T04:51:05;7.87;;;7.27;;
21543;SDS011;10933;50.754;11.508;2023-04-25T04:53:31;7.03;;;6.53;;
21543;SDS011;10933;50.754;11.508;2023-04-25T04:55:58;7.90;;;7.40;;
21543;SDS011;10933;50.754;11.508;2023-04-25T04:58:24;7.50;;;7.00;;
21543;SDS011;10933;50.754;11.508;2023-04-25T05:00:50;5.50;;;5.10;;
21543;SDS011;10933;50.754;11.508;2023-04-25T05:03:16;6.03;;;5.63;;
21543;SDS011;10933;50.754;11.508;2023-04-25T05:05:42;5.90;;;5.40;;
21543;SDS011;10933;50.754;11.508;2023-04-25T05:08:08;7.03;;;6.53;;
21543;SDS011;10933;50.754;11.508;2023-04-25T05:10:34;5.77;;;5.37;;
21543;SDS011;10933;50.754;11.508;2023-04-25T05:13:00;6.33;;;5.73;;
21543;SDS011;10933;50.754;11.508;2023-04-25T05:15:27;5.83;;;5.20;;
21543;SDS011;10933;50.754;11.508;2023-04-25T05:17:54;5.83;;;5.40;;
21543;SDS011;10933;50.754;11.508;2023-04-25T05:20:20;5.37;;;5.07;;
21543;SDS011;10933;50.754;11.508;2023-04-25T05:22:46;5.23;;;4.83;;
21543;SDS011;10933;50.754;11.508;2023-04-25T05:25:12;5.87;;;5.37;;
21543;SDS011;10933;50.754;11.508;2023-04-25T05:27:39;7.77;;;4.87;;
21543;SDS011;10933;50.754;11.508;2023-04-25T05:30:05;9.30;;;4.90;;
21543;SDS011;10933;50.754;11.508;2023-04-25T05:32:32;5.67;;;5.27;;
21543;SDS011;10933;50.754;11.508;2023-04-25T05:34:58;5.80;;;5.30;;
21543;SDS011;10933;50.754;11.508;2023-04-25T05:37:24;13.60;;;5.53;;
21543;SDS011;10933;50.754;11.508;2023-04-25T05:39:50;9.20;;;5.50;;
21543;SDS011;10933;50.754;11.508;2023-04-25T05:42:16;5.77;;;5.27;;
21543;SDS011;10933;50.754;11.508;2023-04-25T05:44:43;5.10;;;3.90;;
21543;SDS011;10933;50.754;11.508;2023-04-25T05:47:09;4.53;;;3.67;;
21543;SDS011;10933;50.754;11.508;2023-04-25T05:49:35;4.03;;;3.75;;
21543;SDS011;10933;50.754;11.508;2023-04-25T05:52:01;4.15;;;3.85;;
21543;SDS011;10933;50.754;11.508;2023-04-25T05:54:28;4.80;;;4.43;;
21543;SDS011;10933;50.754;11.508;2023-04-25T05:56:55;4.47;;;4.18;;
21543;SDS011;10933;50.754;11.508;2023-04-25T05:59:22;4.63;;;4.32;;
21543;SDS011;10933;50.754;11.508;2023-04-25T06:01:48;5.40;;;4.95;;
21543;SDS011;10933;50.754;11.508;2023-04-25T06:04:14;5.20;;;4.80;;
21543;SDS011;10933;50.754;11.508;2023-04-25T06:06:40;12.70;;;4.95;;
21543;SDS011;10933;50.754;11.508;2023-04-25T06:09:06;4.85;;;3.78;;
21543;SDS011;10933;50.754;11.508;2023-04-25T06:11:32;4.47;;;4.07;;
21543;SDS011;10933;50.754;11.508;2023-04-25T06:13:58;4.57;;;4.28;;
21543;SDS011;10933;50.754;11.508;2023-04-25T06:16:25;5.05;;;4.65;;
21543;SDS011;10933;50.754;11.508;2023-04-25T06:18:51;3.88;;;3.58;;
21543;SDS011;10933;50.754;11.508;2023-04-25T06:21:17;3.78;;;3.47;;
21543;SDS011;10933;50.754;11.508;2023-04-25T06:23:43;4.55;;;4.15;;
21543;SDS011;10933;50.754;11.508;2023-04-25T06:26:09;4.22;;;3.92;;
21543;SDS011;10933;50.754;11.508;2023-04-25T06:28:36;3.95;;;3.65;;
21543;SDS011;10933;50.754;11.508;2023-04-25T06:31:02;4.18;;;3.38;;
21543;SDS011;10933;50.754;11.508;2023-04-25T06:33:28;4.00;;;3.63;;
21543;SDS011;10933;50.754;11.508;2023-04-25T06:35:54;4.05;;;3.72;;
21543;SDS011;10933;50.754;11.508;2023-04-25T06:38:20;6.00;;;3.28;;
21543;SDS011;10933;50.754;11.508;2023-04-25T06:40:46;3.88;;;3.22;;
21543;SDS011;10933;50.754;11.508;2023-04-25T06:43:12;3.50;;;3.20;;
21543;SDS011;10933;50.754;11.508;2023-04-25T06:45:39;3.33;;;3.03;;
21543;SDS011;10933;50.754;11.508;2023-04-25T06:48:05;5.63;;;3.92;;
21543;SDS011;10933;50.754;11.508;2023-04-25T06:50:31;2.80;;;2.60;;
21543;SDS011;10933;50.754;11.508;2023-04-25T06:52:58;3.28;;;3.03;;
21543;SDS011;10933;50.754;11.508;2023-04-25T06:55:26;4.35;;;2.92;;
21543;SDS011;10933;50.754;11.508;2023-04-25T06:57:52;6.78;;;2.90;;
21543;SDS011;10933;50.754;11.508;2023-04-25T07:00:18;2.90;;;2.70;;
21543;SDS011;10933;50.754;11.508;2023-04-25T07:02:45;3.63;;;3.33;;
21543;SDS011;10933;50.754;11.508;2023-04-25T07:05:11;3.20;;;2.90;;
21543;SDS011;10933;50.754;11.508;2023-04-25T07:07:37;2.50;;;2.30;;
21543;SDS011;10933;50.754;11.508;2023-04-25T07:10:03;6.50;;;3.13;;
21543;SDS011;10933;50.754;11.508;2023-04-25T07:12:30;2.95;;;2.58;;
21543;SDS011;10933;50.754;11.508;2023-04-25T07:14:56;2.63;;;2.20;;
21543;SDS011;10933;50.754;11.508;2023-04-25T07:17:22;2.40;;;2.30;;
21543;SDS011;10933;50.754;11.508;2023-04-25T07:19:48;4.03;;;2.45;;
21543;SDS011;10933;50.754;11.508;2023-04-25T07:22:17;2.50;;;2.30;;
21543;SDS011;10933;50.754;11.508;2023-04-25T07:24:43;2.88;;;2.67;;
21543;SDS011;10933;50.754;11.508;2023-04-25T07:27:16;2.55;;;2.40;;
21543;SDS011;10933;50.754;11.508;2023-04-25T07:29:42;2.70;;;2.50;;
21543;SDS011;10933;50.754;11.508;2023-04-25T07:32:08;3.15;;;2.92;;
21543;SDS011;10933;50.754;11.508;2023-04-25T07:34:37;2.67;;;2.47;;
21543;SDS011;10933;50.754;11.508;2023-04-25T07:37:03;2.72;;;2.53;;
21543;SDS011;10933;50.754;11.508;2023-04-25T07:39:30;2.53;;;2.33;;
21543;SDS011;10933;50.754;11.508;2023-04-25T07:41:56;2.30;;;2.20;;
21543;SDS011;10933;50.754;11.508;2023-04-25T07:44:26;6.65;;;6.15;;
21543;SDS011;10933;50.754;11.508;2023-04-25T07:46:53;2.90;;;2.45;;
21543;SDS011;10933;50.754;11.508;2023-04-25T07:49:19;3.20;;;2.97;;
21543;SDS011;10933;50.754;11.508;2023-04-25T07:51:45;2.72;;;2.42;;
21543;SDS011;10933;50.754;11.508;2023-04-25T07:54:14;4.47;;;2.77;;
21543;SDS011;10933;50.754;11.508;2023-04-25T07:56:41;3.07;;;2.87;;
21543;SDS011;10933;50.754;11.508;2023-04-25T07:59:08;3.23;;;3.03;;
21543;SDS011;10933;50.754;11.508;2023-04-25T08:01:34;3.67;;;3.37;;
21543;SDS011;10933;50.754;11.508;2023-04-25T08:04:00;5.17;;;4.87;;
21543;SDS011;10933;50.754;11.508;2023-04-25T08:06:26;7.27;;;4.27;;
21543;SDS011;10933;50.754;11.508;2023-04-25T08:08:52;4.33;;;3.93;;
21543;SDS011;10933;50.754;11.508;2023-04-25T08:11:18;7.33;;;3.90;;
21543;SDS011;10933;50.754;11.508;2023-04-25T08:13:44;4.50;;;4.20;;
21543;SDS011;10933;50.754;11.508;2023-04-25T08:16:10;10.40;;;9.60;;
21543;SDS011;10933;50.754;11.508;2023-04-25T08:18:37;6.47;;;6.07;;
21543;SDS011;10933;50.754;11.508;2023-04-25T08:21:03;4.10;;;3.80;;
21543;SDS011;10933;50.754;11.508;2023-04-25T08:23:29;3.67;;;3.37;;
21543;SDS011;10933;50.754;11.508;2023-04-25T08:25:55;3.10;;;2.90;;
21543;SDS011;10933;50.754;11.508;2023-04-25T08:28:23;4.40;;;4.10;;
21543;SDS011;10933;50.754;11.508;2023-04-25T08:30:49;3.67;;;3.37;;
21543;SDS011;10933;50.754;11.508;2023-04-25T08:33:15;4.10;;;3.80;;
21543;SDS011;10933;50.754;11.508;2023-04-25T08:35:42;3.53;;;3.33;;
21543;SDS011;10933;50.754;11.508;2023-04-25T08:38:09;3.00;;;2.80;;
21543;SDS011;10933;50.754;11.508;2023-04-25T08:40:37;7.27;;;3.63;;
21543;SDS011;10933;50.754;11.508;2023-04-25T08:43:04;4.97;;;4.50;;
21543;SDS011;10933;50.754;11.508;2023-04-25T08:45:36;8.20;;;7.60;;
21543;SDS011;10933;50.754;11.508;2023-04-25T08:48:06;3.83;;;3.53;;
21543;SDS011;10933;50.754;11.508;2023-04-25T08:50:40;3.50;;;3.30;;
21543;SDS011;10933;50.754;11.508;2023-04-25T08:53:27;3.20;;;3.00;;
21543;SDS011;10933;50.754;11.508;2023-04-25T08:55:58;3.70;;;3.40;;
21543;SDS011;10933;50.754;11.508;2023-04-25T08:58:27;4.13;;;3.83;;
21543;SDS011;10933;50.754;11.508;2023-04-25T09:00:53;5.33;;;5.03;;
21543;SDS011;10933;50.754;11.508;2023-04-25T09:03:20;3.60;;;3.40;;
21543;SDS011;10933;50.754;11.508;2023-04-25T09:05:46;5.13;;;4.83;;
21543;SDS011;10933;50.754;11.508;2023-04-25T09:08:12;3.87;;;3.57;;
21543;SDS011;10933;50.754;11.508;2023-04-25T09:10:38;6.67;;;6.17;;
21543;SDS011;10933;50.754;11.508;2023-04-25T09:13:24;10.33;;;9.43;;
21543;SDS011;10933;50.754;11.508;2023-04-25T09:15:54;5.30;;;4.87;;
21543;SDS011;10933;50.754;11.508;2023-04-25T09:18:28;5.27;;;4.87;;
21543;SDS011;10933;50.754;11.508;2023-04-25T09:21:05;15.03;;;13.73;;
21543;SDS011;10933;50.754;11.508;2023-04-25T09:23:46;8.53;;;7.97;;
21543;SDS011;10933;50.754;11.508;2023-04-25T09:26:16;4.17;;;3.77;;
21543;SDS011;10933;50.754;11.508;2023-04-25T09:28:44;14.17;;;4.50;;
21543;SDS011;10933;50.754;11.508;2023-04-25T09:31:20;11.50;;;10.80;;
21543;SDS011;10933;50.754;11.508;2023-04-25T09:33:49;4.13;;;3.83;;
21543;SDS011;10933;50.754;11.508;2023-04-25T09:36:15;4.43;;;3.37;;
21543;SDS011;10933;50.754;11.508;2023-04-25T09:38:42;3.80;;;3.50;;
21543;SDS011;10933;50.754;11.508;2023-04-25T09:41:10;4.33;;;4.03;;
21543;SDS011;10933;50.754;11.508;2023-04-25T09:43:37;3.80;;;3.60;;
21543;SDS011;10933;50.754;11.508;2023-04-25T09:46:08;10.97;;;10.37;;
21543;SDS011;10933;50.754;11.508;2023-04-25T09:48:36;8.27;;;6.23;;
21543;SDS011;10933;50.754;11.508;2023-04-25T09:53:28;6.00;;;5.60;;
21543;SDS011;10933;50.754;11.508;2023-04-25T09:55:56;4.73;;;4.40;;
21543;SDS011;10933;50.754;11.508;2023-04-25T09:58:25;4.20;;;3.90;;
21543;SDS011;10933;50.754;11.508;2023-04-25T10:00:54;6.83;;;6.23;;
21543;SDS011;10933;50.754;11.508;2023-04-25T10:03:25;3.40;;;3.10;;
21543;SDS011;10933;50.754;11.508;2023-04-25T10:05:51;3.37;;;3.17;;
21543;SDS011;10933;50.754;11.508;2023-04-25T10:08:19;6.80;;;6.30;;
21543;SDS011;10933;50.754;11.508;2023-04-25T10:10:46;7.53;;;4.43;;
21543;SDS011;10933;50.754;11.508;2023-04-25T10:13:13;6.70;;;6.17;;
21543;SDS011;10933;50.754;11.508;2023-04-25T10:15:40;3.03;;;2.83;;
21543;SDS011;10933;50.754;11.508;2023-04-25T10:18:07;2.85;;;2.65;;
21543;SDS011;10933;50.754;11.508;2023-04-25T10:20:34;2.92;;;2.72;;
21543;SDS011;10933;50.754;11.508;2023-04-25T10:23:06;3.92;;;2.22;;
21543;SDS011;10933;50.754;11.508;2023-04-25T10:25:37;3.45;;;3.25;;
21543;SDS011;10933;50.754;11.508;2023-04-25T10:28:05;7.25;;;3.72;;
21543;SDS011;10933;50.754;11.508;2023-04-25T10:30:31;3.33;;;3.03;;
21543;SDS011;10933;50.754;11.508;2023-04-25T10:32:58;2.97;;;2.75;;
21543;SDS011;10933;50.754;11.508;2023-04-25T10:35:27;3.55;;;3.35;;
21543;SDS011;10933;50.754;11.508;2023-04-25T10:38:20;7.43;;;7.03;;
21543;SDS011;10933;50.754;11.508;2023-04-25T10:41:04;7.73;;;3.30;;
21543;SDS011;10933;50.754;11.508;2023-04-25T10:43:34;3.65;;;3.40;;
21543;SDS011;10933;50.754;11.508;2023-04-25T10:48:50;3.00;;;2.80;;
21543;SDS011;10933;50.754;11.508;2023-04-25T10:51:21;3.78;;;2.78;;
21543;SDS011;10933;50.754;11.508;2023-04-25T10:54:00;2.50;;;2.03;;
21543;SDS011;10933;50.754;11.508;2023-04-25T10:59:08;3.13;;;2.70;;
21543;SDS011;10933;50.754;11.508;2023-04-25T11:07:00;2.37;;;2.23;;
21543;SDS011;10933;50.754;11.508;2023-04-25T11:09:40;2.03;;;1.83;;
21543;SDS011;10933;50.754;11.508;2023-04-25T11:12:07;2.37;;;1.97;;
21543;SDS011;10933;50.754;11.508;2023-04-25T11:14:36;2.57;;;2.37;;
21543;SDS011;10933;50.754;11.508;2023-04-25T11:17:02;4.43;;;2.78;;
21543;SDS011;10933;50.754;11.508;2023-04-25T11:19:28;3.00;;;2.17;;
21543;SDS011;10933;50.754;11.508;2023-04-25T11:21:55;3.67;;;2.72;;
21543;SDS011;10933;50.754;11.508;2023-04-25T11:24:29;3.63;;;2.60;;
21543;SDS011;10933;50.754;11.508;2023-04-25T11:26:56;3.33;;;2.67;;
21543;SDS011;10933;50.754;11.508;2023-04-25T11:29:27;3.13;;;2.80;;
21543;SDS011;10933;50.754;11.508;2023-04-25T11:31:55;5.20;;;2.47;;
21543;SDS011;10933;50.754;11.508;2023-04-25T11:34:25;3.40;;;2.53;;
21543;SDS011;10933;50.754;11.508;2023-04-25T11:36:52;3.65;;;2.28;;
21543;SDS011;10933;50.754;11.508;2023-04-25T11:39:19;4.03;;;3.40;;
21543;SDS011;10933;50.754;11.508;2023-04-25T11:41:46;5.40;;;2.93;;
21543;SDS011;10933;50.754;11.508;2023-04-25T11:44:12;5.93;;;3.27;;
21543;SDS011;10933;50.754;11.508;2023-04-25T11:46:42;5.73;;;3.57;;
21543;SDS011;10933;50.754;11.508;2023-04-25T11:49:08;5.83;;;3.60;;
21543;SDS011;10933;50.754;11.508;2023-04-25T11:51:44;5.43;;;3.47;;
21543;SDS011;10933;50.754;11.508;2023-04-25T11:54:13;5.07;;;3.00;;
21543;SDS011;10933;50.754;11.508;2023-04-25T11:56:45;5.93;;;4.10;;
21543;SDS011;10933;50.754;11.508;2023-04-25T11:59:12;11.43;;;4.03;;
21543;SDS011;10933;50.754;11.508;2023-04-25T12:01:39;8.13;;;3.63;;
21543;SDS011;10933;50.754;11.508;2023-04-25T12:04:19;6.47;;;3.60;;
21543;SDS011;10933;50.754;11.508;2023-04-25T12:06:47;5.10;;;3.30;;
21543;SDS011;10933;50.754;11.508;2023-04-25T12:09:16;9.07;;;3.13;;
21543;SDS011;10933;50.754;11.508;2023-04-25T12:11:52;3.53;;;2.92;;
21543;SDS011;10933;50.754;11.508;2023-04-25T12:14:21;4.07;;;2.90;;
21543;SDS011;10933;50.754;11.508;2023-04-25T12:16:55;5.57;;;2.80;;
21543;SDS011;10933;50.754;11.508;2023-04-25T12:19:23;2.53;;;1.98;;
21543;SDS011;10933;50.754;11.508;2023-04-25T12:21:49;3.90;;;2.88;;
21543;SDS011;10933;50.754;11.508;2023-04-25T12:24:17;2.55;;;1.88;;
21543;SDS011;10933;50.754;11.508;2023-04-25T12:26:59;2.40;;;1.90;;
21543;SDS011;10933;50.754;11.508;2023-04-25T12:29:27;3.05;;;2.33;;
21543;SDS011;10933;50.754;11.508;2023-04-25T12:31:55;2.78;;;2.58;;
21543;SDS011;10933;50.754;11.508;2023-04-25T12:34:21;3.28;;;2.05;;
21543;SDS011;10933;50.754;11.508;2023-04-25T12:36:48;1.95;;;1.67;;
21543;SDS011;10933;50.754;11.508;2023-04-25T12:39:17;4.63;;;2.75;;
21543;SDS011;10933;50.754;11.508;2023-04-25T12:41:47;2.80;;;1.73;;
21543;SDS011;10933;50.754;11.508;2023-04-25T12:44:14;4.80;;;2.40;;
21543;SDS011;10933;50.754;11.508;2023-04-25T12:46:40;10.38;;;9.52;;
21543;SDS011;10933;50.754;11.508;2023-04-25T12:49:07;4.30;;;2.50;;
21543;SDS011;10933;50.754;11.508;2023-04-25T12:51:34;3.65;;;3.25;;
21543;SDS011;10933;50.754;11.508;2023-04-25T12:54:01;3.45;;;2.30;;
21543;SDS011;10933;50.754;11.508;2023-04-25T12:56:29;3.70;;;3.03;;
21543;SDS011;10933;50.754;11.508;2023-04-25T12:58:56;5.50;;;3.03;;
21543;SDS011;10933;50.754;11.508;2023-04-25T13:01:23;3.53;;;3.15;;
21543;SDS011;10933;50.754;11.508;2023-04-25T13:03:50;5.38;;;3.25;;
21543;SDS011;10933;50.754;11.508;2023-04-25T13:06:18;3.50;;;2.47;;
21543;SDS011;10933;50.754;11.508;2023-04-25T13:08:44;3.65;;;3.30;;
21543;SDS011;10933;50.754;11.508;2023-04-25T13:11:11;6.80;;;3.28;;
21543;SDS011;10933;50.754;11.508;2023-04-25T13:13:37;3.38;;;3.08;;
21543;SDS011;10933;50.754;11.508;2023-04-25T13:16:05;6.63;;;2.05;;
21543;SDS011;10933;50.754;11.508;2023-04-25T13:18:32;2.67;;;1.90;;
21543;SDS011;10933;50.754;11.508;2023-04-25T13:20:58;3.05;;;2.17;;
21543;SDS011;10933;50.754;11.508;2023-04-25T13:23:25;4.40;;;3.50;;
21543;SDS011;10933;50.754;11.508;2023-04-25T13:25:52;2.80;;;2.50;;
21543;SDS011;10933;50.754;11.508;2023-04-25T13:28:20;5.30;;;2.05;;
21543;SDS011;10933;50.754;11.508;2023-04-25T13:30:46;2.80;;;2.10;;
21543;SDS011;10933;50.754;11.508;2023-04-25T13:33:13;2.92;;;2.28;;
21543;SDS011;10933;50.754;11.508;2023-04-25T13:35:40;4.18;;;2.30;;
21543;SDS011;10933;50.754;11.508;2023-04-25T13:38:06;6.28;;;2.70;;
21543;SDS011;10933;50.754;11.508;2023-04-25T13:40:33;6.10;;;2.53;;
21543;SDS011;10933;50.754;11.508;2023-04-25T13:43:01;4.57;;;2.78;;
21543;SDS011;10933;50.754;11.508;2023-04-25T13:45:27;4.95;;;2.45;;
21543;SDS011;10933;50.754;11.508;2023-04-25T13:47:53;6.75;;;3.25;;
21543;SDS011;10933;50.754;11.508;2023-04-25T13:50:20;4.43;;;2.97;;
21543;SDS011;10933;50.754;11.508;2023-04-25T13:52:46;5.45;;;2.80;;
21543;SDS011;10933;50.754;11.508;2023-04-25T13:55:12;8.20;;;5.97;;
21543;SDS011;10933;50.754;11.508;2023-04-25T13:57:38;6.80;;;3.83;;
21543;SDS011;10933;50.754;11.508;2023-04-25T14:00:04;9.20;;;5.20;;
21543;SDS011;10933;50.754;11.508;2023-04-25T14:02:39;8.65;;;5.15;;
21543;SDS011;10933;50.754;11.508;2023-04-25T14:05:07;8.98;;;4.05;;
21543;SDS011;10933;50.754;11.508;2023-04-25T14:07:34;9.63;;;4.78;;
21543;SDS011;10933;50.754;11.508;2023-04-25T14:10:00;6.82;;;4.45;;
21543;SDS011;10933;50.754;11.508;2023-04-25T14:12:27;9.43;;;3.92;;
21543;SDS011;10933;50.754;11.508;2023-04-25T14:14:53;9.85;;;3.95;;
21543;SDS011;10933;50.754;11.508;2023-04-25T14:17:19;4.72;;;2.95;;
21543;SDS011;10933;50.754;11.508;2023-04-25T14:19:45;11.70;;;3.70;;
21543;SDS011;10933;50.754;11.508;2023-04-25T14:22:13;4.45;;;1.98;;
21543;SDS011;10933;50.754;11.508;2023-04-25T14:24:40;4.45;;;2.35;;
21543;SDS011;10933;50.754;11.508;2023-04-25T14:27:06;2.97;;;2.13;;
21543;SDS011;10933;50.754;11.508;2023-04-25T14:29:33;3.40;;;2.20;;
21543;SDS011;10933;50.754;11.508;2023-04-25T14:32:00;2.97;;;2.17;;
21543;SDS011;10933;50.754;11.508;2023-04-25T14:34:26;7.85;;;2.80;;
21543;SDS011;10933;50.754;11.508;2023-04-25T14:36:53;6.32;;;2.40;;
21543;SDS011;10933;50.754;11.508;2023-04-25T14:39:19;4.10;;;2.10;;
21543;SDS011;10933;50.754;11.508;2023-04-25T14:41:45;3.03;;;1.77;;
21543;SDS011;10933;50.754;11.508;2023-04-25T14:44:11;3.72;;;2.10;;
21543;SDS011;10933;50.754;11.508;2023-04-25T14:46:38;4.50;;;2.33;;